sensor_id;sensor_type;location;lat;lon;timestamp;temperature;humidity
48806;DHT22;34625;47.176;27.548;2024-02-15T00:00:16;24.20;50.20
48806;DHT22;34625;47.176;27.548;2024-02-15T00:02:45;24.00;50.20
48806;DHT22;34625;47.176;27.548;2024-02-15T00:05:12;24.00;50.20
48806;DHT22;34625;47.176;27.548;2024-02-15T00:07:40;24.00;50.20
48806;DHT22;34625;47.176;27.548;2024-02-15T00:10:07;23.90;50.20
48806;DHT22;34625;47.176;27.548;2024-02-15T00:12:34;24.00;50.20
48806;DHT22;34625;47.176;27.548;2024-02-15T00:15:01;23.90;50.20
48806;DHT22;34625;47.176;27.548;2024-02-15T00:17:28;24.00;50.20
48806;DHT22;34625;47.176;27.548;2024-02-15T00:19:56;23.90;50.20
48806;DHT22;34625;47.176;27.548;2024-02-15T00:22:22;24.10;50.20
48806;DHT22;34625;47.176;27.548;2024-02-15T00:24:48;23.80;50.00
48806;DHT22;34625;47.176;27.548;2024-02-15T00:27:15;23.80;50.00
48806;DHT22;34625;47.176;27.548;2024-02-15T00:29:41;23.90;50.10
48806;DHT22;34625;47.176;27.548;2024-02-15T00:32:09;23.90;50.10
48806;DHT22;34625;47.176;27.548;2024-02-15T00:34:38;23.80;49.90
48806;DHT22;34625;47.176;27.548;2024-02-15T00:37:05;23.90;50.00
48806;DHT22;34625;47.176;27.548;2024-02-15T00:39:31;23.90;50.10
48806;DHT22;34625;47.176;27.548;2024-02-15T00:41:58;23.80;49.90
48806;DHT22;34625;47.176;27.548;2024-02-15T00:44:26;23.80;49.90
48806;DHT22;34625;47.176;27.548;2024-02-15T00:46:52;23.80;49.80
48806;DHT22;34625;47.176;27.548;2024-02-15T00:49:19;23.80;49.80
48806;DHT22;34625;47.176;27.548;2024-02-15T00:51:48;23.90;49.90
48806;DHT22;34625;47.176;27.548;2024-02-15T00:54:15;23.80;49.80
48806;DHT22;34625;47.176;27.548;2024-02-15T00:56:41;24.00;49.80
48806;DHT22;34625;47.176;27.548;2024-02-15T00:59:08;23.90;49.80
48806;DHT22;34625;47.176;27.548;2024-02-15T01:01:34;23.90;49.70
48806;DHT22;34625;47.176;27.548;2024-02-15T01:04:04;23.80;49.70
48806;DHT22;34625;47.176;27.548;2024-02-15T01:06:30;23.80;49.60
48806;DHT22;34625;47.176;27.548;2024-02-15T01:08:57;23.80;49.70
48806;DHT22;34625;47.176;27.548;2024-02-15T01:11:23;23.80;49.70
48806;DHT22;34625;47.176;27.548;2024-02-15T01:13:50;23.80;49.70
48806;DHT22;34625;47.176;27.548;2024-02-15T01:16:16;23.70;49.60
48806;DHT22;34625;47.176;27.548;2024-02-15T01:18:43;23.70;49.60
48806;DHT22;34625;47.176;27.548;2024-02-15T01:21:09;23.80;49.60
48806;DHT22;34625;47.176;27.548;2024-02-15T01:23:37;23.80;49.60
48806;DHT22;34625;47.176;27.548;2024-02-15T01:26:03;23.70;49.60
48806;DHT22;34625;47.176;27.548;2024-02-15T01:28:30;23.60;49.50
48806;DHT22;34625;47.176;27.548;2024-02-15T01:30:57;23.70;49.60
48806;DHT22;34625;47.176;27.548;2024-02-15T01:33:23;23.70;49.60
48806;DHT22;34625;47.176;27.548;2024-02-15T01:35:49;23.60;49.50
48806;DHT22;34625;47.176;27.548;2024-02-15T01:38:15;23.70;49.60
48806;DHT22;34625;47.176;27.548;2024-02-15T01:40:41;23.70;49.50
48806;DHT22;34625;47.176;27.548;2024-02-15T01:43:08;23.60;49.40
48806;DHT22;34625;47.176;27.548;2024-02-15T01:45:34;23.70;49.50
48806;DHT22;34625;47.176;27.548;2024-02-15T01:48:02;23.70;49.40
48806;DHT22;34625;47.176;27.548;2024-02-15T01:50:29;23.70;49.40
48806;DHT22;34625;47.176;27.548;2024-02-15T01:52:58;23.70;49.40
48806;DHT22;34625;47.176;27.548;2024-02-15T01:55:25;23.70;49.40
48806;DHT22;34625;47.176;27.548;2024-02-15T01:57:54;23.80;49.30
48806;DHT22;34625;47.176;27.548;2024-02-15T02:00:20;23.70;49.30
48806;DHT22;34625;47.176;27.548;2024-02-15T02:02:53;23.70;49.30
48806;DHT22;34625;47.176;27.548;2024-02-15T02:05:19;23.80;49.20
48806;DHT22;34625;47.176;27.548;2024-02-15T02:07:46;23.70;49.20
48806;DHT22;34625;47.176;27.548;2024-02-15T02:10:12;23.70;49.20
48806;DHT22;34625;47.176;27.548;2024-02-15T02:12:40;23.70;49.10
48806;DHT22;34625;47.176;27.548;2024-02-15T02:15:07;23.70;49.40
48806;DHT22;34625;47.176;27.548;2024-02-15T02:17:34;23.60;49.80
48806;DHT22;34625;47.176;27.548;2024-02-15T02:20:01;23.50;50.30
48806;DHT22;34625;47.176;27.548;2024-02-15T02:22:35;23.70;50.50
48806;DHT22;34625;47.176;27.548;2024-02-15T02:25:06;23.50;50.60
48806;DHT22;34625;47.176;27.548;2024-02-15T02:27:34;23.60;50.80
48806;DHT22;34625;47.176;27.548;2024-02-15T02:30:05;23.50;51.00
48806;DHT22;34625;47.176;27.548;2024-02-15T02:32:43;23.50;51.30
48806;DHT22;34625;47.176;27.548;2024-02-15T02:35:09;23.60;51.40
48806;DHT22;34625;47.176;27.548;2024-02-15T02:37:41;23.70;51.50
48806;DHT22;34625;47.176;27.548;2024-02-15T02:40:09;23.40;51.40
48806;DHT22;34625;47.176;27.548;2024-02-15T02:42:36;23.60;51.60
48806;DHT22;34625;47.176;27.548;2024-02-15T02:45:12;23.70;51.70
48806;DHT22;34625;47.176;27.548;2024-02-15T02:47:38;23.60;51.60
48806;DHT22;34625;47.176;27.548;2024-02-15T02:50:04;23.70;51.90
48806;DHT22;34625;47.176;27.548;2024-02-15T02:52:30;23.60;51.80
48806;DHT22;34625;47.176;27.548;2024-02-15T02:54:57;23.60;51.90
48806;DHT22;34625;47.176;27.548;2024-02-15T02:57:23;23.60;52.00
48806;DHT22;34625;47.176;27.548;2024-02-15T02:59:49;23.60;52.00
48806;DHT22;34625;47.176;27.548;2024-02-15T03:02:16;23.70;52.00
48806;DHT22;34625;47.176;27.548;2024-02-15T03:04:42;23.60;51.90
48806;DHT22;34625;47.176;27.548;2024-02-15T03:07:08;23.70;52.00
48806;DHT22;34625;47.176;27.548;2024-02-15T03:09:34;23.60;52.00
48806;DHT22;34625;47.176;27.548;2024-02-15T03:12:03;23.60;52.10
48806;DHT22;34625;47.176;27.548;2024-02-15T03:14:29;23.60;52.20
48806;DHT22;34625;47.176;27.548;2024-02-15T03:16:57;23.50;52.40
48806;DHT22;34625;47.176;27.548;2024-02-15T03:19:23;23.50;52.50
48806;DHT22;34625;47.176;27.548;2024-02-15T03:21:49;23.50;52.60
48806;DHT22;34625;47.176;27.548;2024-02-15T03:24:16;23.50;52.70
48806;DHT22;34625;47.176;27.548;2024-02-15T03:26:42;23.50;52.80
48806;DHT22;34625;47.176;27.548;2024-02-15T03:29:08;23.40;52.70
48806;DHT22;34625;47.176;27.548;2024-02-15T03:31:35;23.50;53.00
48806;DHT22;34625;47.176;27.548;2024-02-15T03:34:03;23.40;52.80
48806;DHT22;34625;47.176;27.548;2024-02-15T03:36:30;23.50;53.00
48806;DHT22;34625;47.176;27.548;2024-02-15T03:38:56;23.50;52.90
48806;DHT22;34625;47.176;27.548;2024-02-15T03:41:22;23.50;52.90
48806;DHT22;34625;47.176;27.548;2024-02-15T03:43:49;23.50;52.90
48806;DHT22;34625;47.176;27.548;2024-02-15T03:46:15;23.40;52.80
48806;DHT22;34625;47.176;27.548;2024-02-15T03:48:42;23.40;52.80
48806;DHT22;34625;47.176;27.548;2024-02-15T03:51:16;23.50;52.80
48806;DHT22;34625;47.176;27.548;2024-02-15T03:53:44;23.50;52.80
48806;DHT22;34625;47.176;27.548;2024-02-15T03:56:10;23.70;52.90
48806;DHT22;34625;47.176;27.548;2024-02-15T03:58:38;23.70;52.90
48806;DHT22;34625;47.176;27.548;2024-02-15T04:01:04;23.70;52.80
48806;DHT22;34625;47.176;27.548;2024-02-15T04:03:32;23.70;52.80
48806;DHT22;34625;47.176;27.548;2024-02-15T04:06:00;23.50;52.80
48806;DHT22;34625;47.176;27.548;2024-02-15T04:08:26;23.60;52.80
48806;DHT22;34625;47.176;27.548;2024-02-15T04:10:52;23.60;52.80
48806;DHT22;34625;47.176;27.548;2024-02-15T04:13:19;23.50;52.80
48806;DHT22;34625;47.176;27.548;2024-02-15T04:15:45;23.50;52.90
48806;DHT22;34625;47.176;27.548;2024-02-15T04:18:13;23.40;52.90
48806;DHT22;34625;47.176;27.548;2024-02-15T04:20:40;23.40;53.00
48806;DHT22;34625;47.176;27.548;2024-02-15T04:23:11;23.50;53.20
48806;DHT22;34625;47.176;27.548;2024-02-15T04:25:37;23.50;53.30
48806;DHT22;34625;47.176;27.548;2024-02-15T04:28:04;23.50;53.40
48806;DHT22;34625;47.176;27.548;2024-02-15T04:30:31;23.40;53.50
48806;DHT22;34625;47.176;27.548;2024-02-15T04:32:57;23.40;53.50
48806;DHT22;34625;47.176;27.548;2024-02-15T04:35:23;23.50;53.60
48806;DHT22;34625;47.176;27.548;2024-02-15T04:37:53;23.50;53.60
48806;DHT22;34625;47.176;27.548;2024-02-15T04:40:19;23.50;53.70
48806;DHT22;34625;47.176;27.548;2024-02-15T04:42:46;23.50;53.60
48806;DHT22;34625;47.176;27.548;2024-02-15T04:45:13;23.50;53.60
48806;DHT22;34625;47.176;27.548;2024-02-15T04:47:53;23.50;53.60
48806;DHT22;34625;47.176;27.548;2024-02-15T04:50:19;23.50;53.60
48806;DHT22;34625;47.176;27.548;2024-02-15T04:52:46;23.50;53.60
48806;DHT22;34625;47.176;27.548;2024-02-15T04:55:14;23.50;53.50
48806;DHT22;34625;47.176;27.548;2024-02-15T04:57:41;23.40;53.40
48806;DHT22;34625;47.176;27.548;2024-02-15T05:00:08;23.50;53.40
48806;DHT22;34625;47.176;27.548;2024-02-15T05:02:37;23.40;53.30
48806;DHT22;34625;47.176;27.548;2024-02-15T05:05:07;23.50;53.40
48806;DHT22;34625;47.176;27.548;2024-02-15T05:07:34;23.50;53.40
48806;DHT22;34625;47.176;27.548;2024-02-15T05:10:04;23.50;53.50
48806;DHT22;34625;47.176;27.548;2024-02-15T05:12:33;23.50;53.60
48806;DHT22;34625;47.176;27.548;2024-02-15T05:14:59;23.30;53.60
48806;DHT22;34625;47.176;27.548;2024-02-15T05:17:26;23.40;53.50
48806;DHT22;34625;47.176;27.548;2024-02-15T05:19:55;23.40;53.80
48806;DHT22;34625;47.176;27.548;2024-02-15T05:22:25;23.30;53.90
48806;DHT22;34625;47.176;27.548;2024-02-15T05:24:55;23.40;53.90
48806;DHT22;34625;47.176;27.548;2024-02-15T05:27:21;23.40;54.00
48806;DHT22;34625;47.176;27.548;2024-02-15T05:29:49;23.30;54.10
48806;DHT22;34625;47.176;27.548;2024-02-15T05:32:18;23.30;54.10
48806;DHT22;34625;47.176;27.548;2024-02-15T05:34:46;23.30;54.10
48806;DHT22;34625;47.176;27.548;2024-02-15T05:37:14;23.30;54.00
48806;DHT22;34625;47.176;27.548;2024-02-15T05:39:41;23.30;54.00
48806;DHT22;34625;47.176;27.548;2024-02-15T05:42:07;23.30;54.00
48806;DHT22;34625;47.176;27.548;2024-02-15T05:44:36;23.30;54.00
48806;DHT22;34625;47.176;27.548;2024-02-15T05:47:02;23.40;53.90
48806;DHT22;34625;47.176;27.548;2024-02-15T05:49:28;23.40;53.90
48806;DHT22;34625;47.176;27.548;2024-02-15T05:51:54;23.30;53.80
48806;DHT22;34625;47.176;27.548;2024-02-15T05:54:21;23.40;53.80
48806;DHT22;34625;47.176;27.548;2024-02-15T05:56:48;23.30;53.80
48806;DHT22;34625;47.176;27.548;2024-02-15T05:59:17;23.50;53.80
48806;DHT22;34625;47.176;27.548;2024-02-15T06:01:46;23.40;53.80
48806;DHT22;34625;47.176;27.548;2024-02-15T06:04:15;23.50;53.80
48806;DHT22;34625;47.176;27.548;2024-02-15T06:06:42;23.50;53.70
48806;DHT22;34625;47.176;27.548;2024-02-15T06:09:08;23.30;53.70
48806;DHT22;34625;47.176;27.548;2024-02-15T06:11:35;23.30;53.90
48806;DHT22;34625;47.176;27.548;2024-02-15T06:14:03;23.30;54.00
48806;DHT22;34625;47.176;27.548;2024-02-15T06:16:29;23.30;54.10
48806;DHT22;34625;47.176;27.548;2024-02-15T06:18:55;23.30;54.10
48806;DHT22;34625;47.176;27.548;2024-02-15T06:21:21;23.30;54.20
48806;DHT22;34625;47.176;27.548;2024-02-15T06:23:48;23.20;54.20
48806;DHT22;34625;47.176;27.548;2024-02-15T06:26:15;23.20;54.30
48806;DHT22;34625;47.176;27.548;2024-02-15T06:28:42;23.20;54.30
48806;DHT22;34625;47.176;27.548;2024-02-15T06:31:27;23.40;54.40
48806;DHT22;34625;47.176;27.548;2024-02-15T06:34:12;23.20;54.30
48806;DHT22;34625;47.176;27.548;2024-02-15T06:36:57;23.10;54.20
48806;DHT22;34625;47.176;27.548;2024-02-15T06:39:41;23.20;54.20
48806;DHT22;34625;47.176;27.548;2024-02-15T06:42:17;23.20;54.20
48806;DHT22;34625;47.176;27.548;2024-02-15T06:44:47;23.20;54.10
48806;DHT22;34625;47.176;27.548;2024-02-15T06:47:13;23.30;54.20
48806;DHT22;34625;47.176;27.548;2024-02-15T06:49:42;23.30;54.10
48806;DHT22;34625;47.176;27.548;2024-02-15T06:52:10;23.30;54.10
48806;DHT22;34625;47.176;27.548;2024-02-15T06:54:40;23.40;54.00
48806;DHT22;34625;47.176;27.548;2024-02-15T06:57:07;23.40;54.00
48806;DHT22;34625;47.176;27.548;2024-02-15T06:59:33;23.30;53.90
48806;DHT22;34625;47.176;27.548;2024-02-15T07:02:00;23.40;54.00
48806;DHT22;34625;47.176;27.548;2024-02-15T07:04:27;23.20;53.90
48806;DHT22;34625;47.176;27.548;2024-02-15T07:06:55;23.30;54.00
48806;DHT22;34625;47.176;27.548;2024-02-15T07:09:21;23.20;53.90
48806;DHT22;34625;47.176;27.548;2024-02-15T07:11:53;23.20;54.00
48806;DHT22;34625;47.176;27.548;2024-02-15T07:14:19;23.30;54.20
48806;DHT22;34625;47.176;27.548;2024-02-15T07:16:47;23.20;54.10
48806;DHT22;34625;47.176;27.548;2024-02-15T07:19:16;23.30;54.50
48806;DHT22;34625;47.176;27.548;2024-02-15T07:21:42;23.30;55.00
48806;DHT22;34625;47.176;27.548;2024-02-15T07:24:09;23.40;51.70
48806;DHT22;34625;47.176;27.548;2024-02-15T07:26:36;23.50;55.60
48806;DHT22;34625;47.176;27.548;2024-02-15T07:29:02;23.50;54.20
48806;DHT22;34625;47.176;27.548;2024-02-15T07:31:32;23.50;53.40
48806;DHT22;34625;47.176;27.548;2024-02-15T07:34:01;23.70;53.30
48806;DHT22;34625;47.176;27.548;2024-02-15T07:36:29;23.60;48.60
48806;DHT22;34625;47.176;27.548;2024-02-15T07:38:55;23.60;45.60
48806;DHT22;34625;47.176;27.548;2024-02-15T07:41:27;23.50;51.50
48806;DHT22;34625;47.176;27.548;2024-02-15T07:43:54;23.60;54.00
48806;DHT22;34625;47.176;27.548;2024-02-15T07:46:21;23.60;54.00
48806;DHT22;34625;47.176;27.548;2024-02-15T07:48:48;23.80;54.30
48806;DHT22;34625;47.176;27.548;2024-02-15T07:51:18;23.80;54.00
48806;DHT22;34625;47.176;27.548;2024-02-15T07:53:46;23.80;54.00
48806;DHT22;34625;47.176;27.548;2024-02-15T07:56:14;23.90;54.20
48806;DHT22;34625;47.176;27.548;2024-02-15T07:58:44;23.80;53.80
48806;DHT22;34625;47.176;27.548;2024-02-15T08:01:14;23.90;53.70
48806;DHT22;34625;47.176;27.548;2024-02-15T08:03:42;23.80;53.90
48806;DHT22;34625;47.176;27.548;2024-02-15T08:06:12;23.90;53.70
48806;DHT22;34625;47.176;27.548;2024-02-15T08:08:39;23.90;53.70
48806;DHT22;34625;47.176;27.548;2024-02-15T08:11:09;23.80;53.60
48806;DHT22;34625;47.176;27.548;2024-02-15T08:13:51;23.80;53.50
48806;DHT22;34625;47.176;27.548;2024-02-15T08:16:21;23.80;53.60
48806;DHT22;34625;47.176;27.548;2024-02-15T08:18:53;23.80;53.90
48806;DHT22;34625;47.176;27.548;2024-02-15T08:21:30;23.80;54.20
48806;DHT22;34625;47.176;27.548;2024-02-15T08:24:02;23.80;54.40
48806;DHT22;34625;47.176;27.548;2024-02-15T08:26:40;23.80;54.50
48806;DHT22;34625;47.176;27.548;2024-02-15T08:29:07;23.70;56.10
48806;DHT22;34625;47.176;27.548;2024-02-15T08:31:34;23.70;55.80
48806;DHT22;34625;47.176;27.548;2024-02-15T08:34:04;23.90;56.00
48806;DHT22;34625;47.176;27.548;2024-02-15T08:36:36;23.90;54.70
48806;DHT22;34625;47.176;27.548;2024-02-15T08:39:02;23.90;53.60
48806;DHT22;34625;47.176;27.548;2024-02-15T08:41:30;24.00;54.00
48806;DHT22;34625;47.176;27.548;2024-02-15T08:43:56;24.20;52.90
48806;DHT22;34625;47.176;27.548;2024-02-15T08:46:27;24.20;51.70
48806;DHT22;34625;47.176;27.548;2024-02-15T08:48:53;24.00;50.70
48806;DHT22;34625;47.176;27.548;2024-02-15T08:51:19;24.00;50.30
48806;DHT22;34625;47.176;27.548;2024-02-15T08:53:47;24.10;49.90
48806;DHT22;34625;47.176;27.548;2024-02-15T08:56:13;24.10;49.70
48806;DHT22;34625;47.176;27.548;2024-02-15T08:58:39;24.00;50.10
48806;DHT22;34625;47.176;27.548;2024-02-15T09:01:08;24.00;51.20
48806;DHT22;34625;47.176;27.548;2024-02-15T09:03:34;24.20;50.70
48806;DHT22;34625;47.176;27.548;2024-02-15T09:06:02;24.20;50.20
48806;DHT22;34625;47.176;27.548;2024-02-15T09:08:29;24.20;49.40
48806;DHT22;34625;47.176;27.548;2024-02-15T09:10:56;24.20;49.10
48806;DHT22;34625;47.176;27.548;2024-02-15T09:13:23;24.50;48.70
48806;DHT22;34625;47.176;27.548;2024-02-15T09:15:50;24.50;48.30
48806;DHT22;34625;47.176;27.548;2024-02-15T09:18:16;24.40;48.10
48806;DHT22;34625;47.176;27.548;2024-02-15T09:20:48;24.40;48.10
48806;DHT22;34625;47.176;27.548;2024-02-15T09:23:21;24.50;48.30
48806;DHT22;34625;47.176;27.548;2024-02-15T09:25:49;24.40;48.40
48806;DHT22;34625;47.176;27.548;2024-02-15T09:28:18;24.30;48.50
48806;DHT22;34625;47.176;27.548;2024-02-15T09:30:48;24.50;48.80
48806;DHT22;34625;47.176;27.548;2024-02-15T09:33:19;24.40;48.80
48806;DHT22;34625;47.176;27.548;2024-02-15T09:35:45;24.40;48.90
48806;DHT22;34625;47.176;27.548;2024-02-15T09:38:12;24.20;48.80
48806;DHT22;34625;47.176;27.548;2024-02-15T09:40:40;24.40;49.00
48806;DHT22;34625;47.176;27.548;2024-02-15T09:43:06;24.20;48.90
48806;DHT22;34625;47.176;27.548;2024-02-15T09:45:32;24.30;49.10
48806;DHT22;34625;47.176;27.548;2024-02-15T09:48:05;24.20;49.10
48806;DHT22;34625;47.176;27.548;2024-02-15T09:50:34;24.20;49.70
48806;DHT22;34625;47.176;27.548;2024-02-15T09:53:01;24.10;49.50
48806;DHT22;34625;47.176;27.548;2024-02-15T09:55:28;24.20;49.70
48806;DHT22;34625;47.176;27.548;2024-02-15T09:57:55;24.00;49.80
48806;DHT22;34625;47.176;27.548;2024-02-15T10:00:21;24.20;50.10
48806;DHT22;34625;47.176;27.548;2024-02-15T10:02:49;24.10;50.50
48806;DHT22;34625;47.176;27.548;2024-02-15T10:05:17;23.90;50.60
48806;DHT22;34625;47.176;27.548;2024-02-15T10:07:45;24.00;50.90
48806;DHT22;34625;47.176;27.548;2024-02-15T10:12:48;24.00;51.40
48806;DHT22;34625;47.176;27.548;2024-02-15T10:15:34;23.90;51.70
48806;DHT22;34625;47.176;27.548;2024-02-15T10:18:05;24.00;51.70
48806;DHT22;34625;47.176;27.548;2024-02-15T10:20:36;24.00;51.90
48806;DHT22;34625;47.176;27.548;2024-02-15T10:25:35;24.10;52.50
48806;DHT22;34625;47.176;27.548;2024-02-15T10:28:08;23.90;52.50
48806;DHT22;34625;47.176;27.548;2024-02-15T10:30:41;23.90;52.60
48806;DHT22;34625;47.176;27.548;2024-02-15T10:33:09;24.10;52.70
48806;DHT22;34625;47.176;27.548;2024-02-15T10:35:36;24.00;52.70
48806;DHT22;34625;47.176;27.548;2024-02-15T10:38:10;23.80;52.70
48806;DHT22;34625;47.176;27.548;2024-02-15T10:40:37;23.80;52.80
48806;DHT22;34625;47.176;27.548;2024-02-15T10:43:04;23.80;52.80
48806;DHT22;34625;47.176;27.548;2024-02-15T10:45:32;23.70;53.00
48806;DHT22;34625;47.176;27.548;2024-02-15T10:47:59;23.80;53.00
48806;DHT22;34625;47.176;27.548;2024-02-15T10:50:25;23.80;53.10
48806;DHT22;34625;47.176;27.548;2024-02-15T10:52:56;23.60;53.40
48806;DHT22;34625;47.176;27.548;2024-02-15T10:55:35;23.90;52.90
48806;DHT22;34625;47.176;27.548;2024-02-15T10:58:06;24.10;48.30
48806;DHT22;34625;47.176;27.548;2024-02-15T11:00:35;24.00;47.80
48806;DHT22;34625;47.176;27.548;2024-02-15T11:03:07;23.90;50.20
48806;DHT22;34625;47.176;27.548;2024-02-15T11:05:35;24.00;50.50
48806;DHT22;34625;47.176;27.548;2024-02-15T11:08:08;24.00;49.80
48806;DHT22;34625;47.176;27.548;2024-02-15T11:10:37;24.00;51.50
48806;DHT22;34625;47.176;27.548;2024-02-15T11:13:04;24.00;55.70
48806;DHT22;34625;47.176;27.548;2024-02-15T11:18:05;24.00;53.20
48806;DHT22;34625;47.176;27.548;2024-02-15T11:23:00;24.10;54.20
48806;DHT22;34625;47.176;27.548;2024-02-15T11:25:34;24.60;52.80
48806;DHT22;34625;47.176;27.548;2024-02-15T11:30:49;24.90;56.30
48806;DHT22;34625;47.176;27.548;2024-02-15T11:33:38;24.90;47.40
48806;DHT22;34625;47.176;27.548;2024-02-15T11:36:14;24.70;41.30
48806;DHT22;34625;47.176;27.548;2024-02-15T11:38:43;24.60;41.30
48806;DHT22;34625;47.176;27.548;2024-02-15T11:41:10;24.50;43.70
48806;DHT22;34625;47.176;27.548;2024-02-15T11:43:50;24.50;41.00
48806;DHT22;34625;47.176;27.548;2024-02-15T11:46:25;24.70;49.20
48806;DHT22;34625;47.176;27.548;2024-02-15T11:48:52;24.70;49.80
48806;DHT22;34625;47.176;27.548;2024-02-15T11:54:20;24.60;50.30
48806;DHT22;34625;47.176;27.548;2024-02-15T11:56:56;24.60;50.60
48806;DHT22;34625;47.176;27.548;2024-02-15T11:59:40;24.60;50.90
48806;DHT22;34625;47.176;27.548;2024-02-15T12:02:25;24.60;51.10
48806;DHT22;34625;47.176;27.548;2024-02-15T12:05:11;24.50;51.10
48806;DHT22;34625;47.176;27.548;2024-02-15T12:07:55;24.50;51.30
48806;DHT22;34625;47.176;27.548;2024-02-15T12:10:40;24.50;51.50
48806;DHT22;34625;47.176;27.548;2024-02-15T12:13:24;24.50;51.70
48806;DHT22;34625;47.176;27.548;2024-02-15T12:16:09;24.60;51.70
48806;DHT22;34625;47.176;27.548;2024-02-15T12:18:54;24.40;51.80
48806;DHT22;34625;47.176;27.548;2024-02-15T12:21:23;24.50;51.90
48806;DHT22;34625;47.176;27.548;2024-02-15T12:23:51;24.60;51.90
48806;DHT22;34625;47.176;27.548;2024-02-15T12:26:21;24.40;51.80
48806;DHT22;34625;47.176;27.548;2024-02-15T12:28:51;24.50;52.00
48806;DHT22;34625;47.176;27.548;2024-02-15T12:31:21;24.50;52.00
48806;DHT22;34625;47.176;27.548;2024-02-15T12:33:47;24.50;50.20
48806;DHT22;34625;47.176;27.548;2024-02-15T12:36:24;24.30;46.60
48806;DHT22;34625;47.176;27.548;2024-02-15T12:39:02;24.60;48.40
48806;DHT22;34625;47.176;27.548;2024-02-15T12:41:29;24.50;45.80
48806;DHT22;34625;47.176;27.548;2024-02-15T12:43:56;24.50;45.70
48806;DHT22;34625;47.176;27.548;2024-02-15T12:46:23;24.50;44.90
48806;DHT22;34625;47.176;27.548;2024-02-15T12:48:49;24.60;44.80
48806;DHT22;34625;47.176;27.548;2024-02-15T12:51:17;24.60;46.30
48806;DHT22;34625;47.176;27.548;2024-02-15T12:53:43;24.90;47.80
48806;DHT22;34625;47.176;27.548;2024-02-15T12:56:10;25.00;50.40
48806;DHT22;34625;47.176;27.548;2024-02-15T12:58:36;25.30;49.30
48806;DHT22;34625;47.176;27.548;2024-02-15T13:01:02;25.40;49.30
48806;DHT22;34625;47.176;27.548;2024-02-15T13:03:30;25.40;52.00
48806;DHT22;34625;47.176;27.548;2024-02-15T13:05:56;25.40;50.40
48806;DHT22;34625;47.176;27.548;2024-02-15T13:08:23;25.40;49.50
48806;DHT22;34625;47.176;27.548;2024-02-15T13:10:49;25.40;49.20
48806;DHT22;34625;47.176;27.548;2024-02-15T13:13:17;25.40;49.00
48806;DHT22;34625;47.176;27.548;2024-02-15T13:15:43;25.40;49.10
48806;DHT22;34625;47.176;27.548;2024-02-15T13:18:09;25.40;49.10
48806;DHT22;34625;47.176;27.548;2024-02-15T13:20:37;25.40;49.00
48806;DHT22;34625;47.176;27.548;2024-02-15T13:23:05;25.30;49.10
48806;DHT22;34625;47.176;27.548;2024-02-15T13:25:35;25.40;49.10
48806;DHT22;34625;47.176;27.548;2024-02-15T13:28:03;25.30;49.20
48806;DHT22;34625;47.176;27.548;2024-02-15T13:30:30;25.10;49.30
48806;DHT22;34625;47.176;27.548;2024-02-15T13:32:56;25.20;49.30
48806;DHT22;34625;47.176;27.548;2024-02-15T13:35:23;25.10;49.40
48806;DHT22;34625;47.176;27.548;2024-02-15T13:37:54;25.00;49.50
48806;DHT22;34625;47.176;27.548;2024-02-15T13:40:21;25.10;49.60
48806;DHT22;34625;47.176;27.548;2024-02-15T13:42:52;25.10;49.90
48806;DHT22;34625;47.176;27.548;2024-02-15T13:45:31;25.00;50.00
48806;DHT22;34625;47.176;27.548;2024-02-15T13:48:03;25.00;50.10
48806;DHT22;34625;47.176;27.548;2024-02-15T13:50:53;24.90;50.10
48806;DHT22;34625;47.176;27.548;2024-02-15T13:53:19;24.80;50.10
48806;DHT22;34625;47.176;27.548;2024-02-15T13:55:45;24.80;50.20
48806;DHT22;34625;47.176;27.548;2024-02-15T13:58:13;24.80;50.20
48806;DHT22;34625;47.176;27.548;2024-02-15T14:00:40;24.80;50.20
48806;DHT22;34625;47.176;27.548;2024-02-15T14:03:08;24.80;50.20
48806;DHT22;34625;47.176;27.548;2024-02-15T14:05:36;24.80;50.20
48806;DHT22;34625;47.176;27.548;2024-02-15T14:08:06;24.80;50.30
48806;DHT22;34625;47.176;27.548;2024-02-15T14:10:34;24.70;50.40
48806;DHT22;34625;47.176;27.548;2024-02-15T14:13:03;24.80;50.40
48806;DHT22;34625;47.176;27.548;2024-02-15T14:15:32;24.60;50.30
48806;DHT22;34625;47.176;27.548;2024-02-15T14:18:09;24.70;50.90
48806;DHT22;34625;47.176;27.548;2024-02-15T14:20:45;24.70;51.30
48806;DHT22;34625;47.176;27.548;2024-02-15T14:23:15;24.60;51.50
48806;DHT22;34625;47.176;27.548;2024-02-15T14:25:42;24.50;51.90
48806;DHT22;34625;47.176;27.548;2024-02-15T14:28:09;24.50;51.80
48806;DHT22;34625;47.176;27.548;2024-02-15T14:30:35;24.50;52.00
48806;DHT22;34625;47.176;27.548;2024-02-15T14:33:20;24.50;52.00
48806;DHT22;34625;47.176;27.548;2024-02-15T14:35:48;24.30;51.90
48806;DHT22;34625;47.176;27.548;2024-02-15T14:38:15;24.40;52.20
48806;DHT22;34625;47.176;27.548;2024-02-15T14:40:44;24.30;52.40
48806;DHT22;34625;47.176;27.548;2024-02-15T14:43:12;24.40;52.60
48806;DHT22;34625;47.176;27.548;2024-02-15T14:45:41;24.20;52.60
48806;DHT22;34625;47.176;27.548;2024-02-15T14:48:08;24.20;52.70
48806;DHT22;34625;47.176;27.548;2024-02-15T14:50:39;24.20;52.60
48806;DHT22;34625;47.176;27.548;2024-02-15T14:53:06;24.20;52.50
48806;DHT22;34625;47.176;27.548;2024-02-15T14:55:34;24.10;52.70
48806;DHT22;34625;47.176;27.548;2024-02-15T14:58:00;24.20;52.80
48806;DHT22;34625;47.176;27.548;2024-02-15T15:00:26;24.10;52.90
48806;DHT22;34625;47.176;27.548;2024-02-15T15:02:53;24.10;53.10
48806;DHT22;34625;47.176;27.548;2024-02-15T15:05:23;24.20;53.10
48806;DHT22;34625;47.176;27.548;2024-02-15T15:08:07;24.20;53.30
48806;DHT22;34625;47.176;27.548;2024-02-15T15:10:54;24.20;53.30
48806;DHT22;34625;47.176;27.548;2024-02-15T15:13:38;24.10;53.20
48806;DHT22;34625;47.176;27.548;2024-02-15T15:16:04;24.10;53.10
48806;DHT22;34625;47.176;27.548;2024-02-15T15:18:33;24.00;53.10
48806;DHT22;34625;47.176;27.548;2024-02-15T15:21:00;24.20;53.10
48806;DHT22;34625;47.176;27.548;2024-02-15T15:23:27;24.00;53.00
48806;DHT22;34625;47.176;27.548;2024-02-15T15:26:02;24.00;53.00
48806;DHT22;34625;47.176;27.548;2024-02-15T15:28:29;24.00;53.00
48806;DHT22;34625;47.176;27.548;2024-02-15T15:30:55;24.00;53.00
48806;DHT22;34625;47.176;27.548;2024-02-15T15:33:22;24.00;53.00
48806;DHT22;34625;47.176;27.548;2024-02-15T15:35:49;23.90;53.00
48806;DHT22;34625;47.176;27.548;2024-02-15T15:38:15;23.80;53.00
48806;DHT22;34625;47.176;27.548;2024-02-15T15:40:42;23.80;53.10